sensor_id;sensor_type;location;lat;lon;timestamp;pressure;altitude;pressure_sealevel;temperature;humidity
78615;BME280;67937;52.488;20.952;2023-03-18T00:01:00;101218.20;;;3.54;57.54
78615;BME280;67937;52.488;20.952;2023-03-18T00:03:30;101222.61;;;3.53;57.44
78615;BME280;67937;52.488;20.952;2023-03-18T00:06:04;101220.49;;;3.49;57.66
78615;BME280;67937;52.488;20.952;2023-03-18T00:08:32;101216.13;;;3.49;57.65
78615;BME280;67937;52.488;20.952;2023-03-18T00:11:00;101215.29;;;3.48;57.69
78615;BME280;67937;52.488;20.952;2023-03-18T00:13:33;101214.09;;;3.48;57.59
78615;BME280;67937;52.488;20.952;2023-03-18T00:16:03;101212.23;;;3.46;57.60
78615;BME280;67937;52.488;20.952;2023-03-18T00:18:32;101211.91;;;3.50;57.32
78615;BME280;67937;52.488;20.952;2023-03-18T00:21:01;101207.17;;;3.46;57.36
78615;BME280;67937;52.488;20.952;2023-03-18T00:23:30;101208.52;;;3.42;57.58
78615;BME280;67937;52.488;20.952;2023-03-18T00:25:59;101205.29;;;3.45;57.37
78615;BME280;67937;52.488;20.952;2023-03-18T00:28:28;101205.15;;;3.44;57.41
78615;BME280;67937;52.488;20.952;2023-03-18T00:31:05;101203.50;;;3.46;57.32
78615;BME280;67937;52.488;20.952;2023-03-18T00:33:37;101196.84;;;3.42;57.38
78615;BME280;67937;52.488;20.952;2023-03-18T00:36:07;101193.52;;;3.43;57.18
78615;BME280;67937;52.488;20.952;2023-03-18T00:38:36;101193.76;;;3.40;56.77
78615;BME280;67937;52.488;20.952;2023-03-18T00:41:04;101191.95;;;3.38;56.76
78615;BME280;67937;52.488;20.952;2023-03-18T00:43:39;101184.55;;;3.35;56.66
78615;BME280;67937;52.488;20.952;2023-03-18T00:46:17;101185.16;;;3.37;56.52
78615;BME280;67937;52.488;20.952;2023-03-18T00:48:46;101181.44;;;3.34;56.80
78615;BME280;67937;52.488;20.952;2023-03-18T00:51:15;101176.52;;;3.30;57.00
78615;BME280;67937;52.488;20.952;2023-03-18T00:53:45;101172.51;;;3.25;57.25
78615;BME280;67937;52.488;20.952;2023-03-18T00:56:14;101169.52;;;3.21;57.36
78615;BME280;67937;52.488;20.952;2023-03-18T00:58:44;101166.11;;;3.19;57.46
78615;BME280;67937;52.488;20.952;2023-03-18T01:01:12;101170.16;;;3.23;57.17
78615;BME280;67937;52.488;20.952;2023-03-18T01:03:42;101169.46;;;3.27;56.91
78615;BME280;67937;52.488;20.952;2023-03-18T01:06:12;101162.50;;;3.27;56.66
78615;BME280;67937;52.488;20.952;2023-03-18T01:08:40;101162.34;;;3.27;56.94
78615;BME280;67937;52.488;20.952;2023-03-18T01:11:09;101157.77;;;3.28;56.82
78615;BME280;67937;52.488;20.952;2023-03-18T01:13:38;101157.00;;;3.25;57.02
78615;BME280;67937;52.488;20.952;2023-03-18T01:16:08;101154.07;;;3.24;57.09
78615;BME280;67937;52.488;20.952;2023-03-18T01:18:37;101152.66;;;3.24;56.96
78615;BME280;67937;52.488;20.952;2023-03-18T01:21:07;101149.13;;;3.21;57.13
78615;BME280;67937;52.488;20.952;2023-03-18T01:23:36;101147.48;;;3.18;57.26
78615;BME280;67937;52.488;20.952;2023-03-18T01:26:05;101143.41;;;3.20;57.40
78615;BME280;67937;52.488;20.952;2023-03-18T01:28:33;101143.34;;;3.17;57.38
78615;BME280;67937;52.488;20.952;2023-03-18T01:31:02;101146.42;;;3.14;57.65
78615;BME280;67937;52.488;20.952;2023-03-18T01:33:30;101145.95;;;3.12;57.65
78615;BME280;67937;52.488;20.952;2023-03-18T01:36:00;101146.74;;;3.10;57.75
78615;BME280;67937;52.488;20.952;2023-03-18T01:38:29;101141.36;;;3.09;57.75
78615;BME280;67937;52.488;20.952;2023-03-18T01:40:59;101143.83;;;3.14;57.79
78615;BME280;67937;52.488;20.952;2023-03-18T01:43:30;101143.15;;;3.08;57.80
78615;BME280;67937;52.488;20.952;2023-03-18T01:46:01;101140.98;;;3.05;57.76
78615;BME280;67937;52.488;20.952;2023-03-18T01:48:30;101141.14;;;3.05;57.72
78615;BME280;67937;52.488;20.952;2023-03-18T01:51:06;101143.97;;;3.00;57.80
78615;BME280;67937;52.488;20.952;2023-03-18T01:53:41;101143.14;;;2.98;57.78
78615;BME280;67937;52.488;20.952;2023-03-18T01:56:12;101140.68;;;2.93;57.71
78615;BME280;67937;52.488;20.952;2023-03-18T01:58:45;101138.15;;;2.97;57.63
78615;BME280;67937;52.488;20.952;2023-03-18T02:01:22;101141.02;;;2.95;57.45
78615;BME280;67937;52.488;20.952;2023-03-18T02:03:52;101136.38;;;2.88;57.58
78615;BME280;67937;52.488;20.952;2023-03-18T02:06:21;101137.86;;;2.85;57.51
78615;BME280;67937;52.488;20.952;2023-03-18T02:08:49;101143.79;;;2.80;57.66
78615;BME280;67937;52.488;20.952;2023-03-18T02:11:17;101145.70;;;2.75;57.85
78615;BME280;67937;52.488;20.952;2023-03-18T02:13:46;101143.71;;;2.73;58.10
78615;BME280;67937;52.488;20.952;2023-03-18T02:16:29;101143.33;;;2.68;57.90
78615;BME280;67937;52.488;20.952;2023-03-18T02:19:17;101143.83;;;2.63;58.30
78615;BME280;67937;52.488;20.952;2023-03-18T02:25:04;101140.62;;;2.60;58.47
78615;BME280;67937;52.488;20.952;2023-03-18T02:27:36;101134.96;;;2.57;58.68
78615;BME280;67937;52.488;20.952;2023-03-18T02:30:14;101133.70;;;2.58;58.57
78615;BME280;67937;52.488;20.952;2023-03-18T02:32:45;101130.61;;;2.57;58.57
78615;BME280;67937;52.488;20.952;2023-03-18T02:35:15;101134.49;;;2.61;58.59
78615;BME280;67937;52.488;20.952;2023-03-18T02:37:43;101134.48;;;2.61;58.41
78615;BME280;67937;52.488;20.952;2023-03-18T02:40:17;101130.88;;;2.60;58.75
78615;BME280;67937;52.488;20.952;2023-03-18T02:42:46;101134.33;;;2.61;58.61
78615;BME280;67937;52.488;20.952;2023-03-18T02:48:05;101128.67;;;2.58;58.82
78615;BME280;67937;52.488;20.952;2023-03-18T02:50:35;101128.63;;;2.55;58.96
78615;BME280;67937;52.488;20.952;2023-03-18T02:53:04;101126.90;;;2.54;58.71
78615;BME280;67937;52.488;20.952;2023-03-18T02:55:32;101128.75;;;2.51;58.79
78615;BME280;67937;52.488;20.952;2023-03-18T02:58:00;101122.92;;;2.48;58.96
78615;BME280;67937;52.488;20.952;2023-03-18T03:00:28;101124.55;;;2.46;59.07
78615;BME280;67937;52.488;20.952;2023-03-18T03:02:56;101121.24;;;2.46;59.05
78615;BME280;67937;52.488;20.952;2023-03-18T03:05:25;101121.90;;;2.47;58.95
78615;BME280;67937;52.488;20.952;2023-03-18T03:07:53;101124.58;;;2.45;58.67
78615;BME280;67937;52.488;20.952;2023-03-18T03:10:21;101121.08;;;2.41;58.70
78615;BME280;67937;52.488;20.952;2023-03-18T03:12:49;101120.95;;;2.39;59.07
78615;BME280;67937;52.488;20.952;2023-03-18T03:15:18;101118.77;;;2.37;59.12
78615;BME280;67937;52.488;20.952;2023-03-18T03:17:46;101113.59;;;2.40;59.36
78615;BME280;67937;52.488;20.952;2023-03-18T03:20:15;101112.48;;;2.42;59.31
78615;BME280;67937;52.488;20.952;2023-03-18T03:22:43;101113.63;;;2.40;59.49
78615;BME280;67937;52.488;20.952;2023-03-18T03:25:12;101113.10;;;2.40;59.46
78615;BME280;67937;52.488;20.952;2023-03-18T03:27:41;101111.79;;;2.37;59.64
78615;BME280;67937;52.488;20.952;2023-03-18T03:30:11;101111.54;;;2.39;59.54
78615;BME280;67937;52.488;20.952;2023-03-18T03:32:40;101110.08;;;2.36;59.52
78615;BME280;67937;52.488;20.952;2023-03-18T03:35:12;101112.02;;;2.36;59.44
78615;BME280;67937;52.488;20.952;2023-03-18T03:37:41;101118.48;;;2.35;59.13
78615;BME280;67937;52.488;20.952;2023-03-18T03:40:11;101118.58;;;2.32;59.25
78615;BME280;67937;52.488;20.952;2023-03-18T03:42:40;101115.84;;;2.31;59.21
78615;BME280;67937;52.488;20.952;2023-03-18T03:45:10;101116.79;;;2.33;59.11
78615;BME280;67937;52.488;20.952;2023-03-18T03:47:40;101120.05;;;2.30;59.10
78615;BME280;67937;52.488;20.952;2023-03-18T03:50:09;101120.05;;;2.25;59.33
78615;BME280;67937;52.488;20.952;2023-03-18T03:52:38;101123.95;;;2.23;59.39
78615;BME280;67937;52.488;20.952;2023-03-18T03:55:08;101123.13;;;2.27;59.25
78615;BME280;67937;52.488;20.952;2023-03-18T03:57:38;101120.70;;;2.21;59.15
78615;BME280;67937;52.488;20.952;2023-03-18T04:00:10;101118.73;;;2.17;59.54
78615;BME280;67937;52.488;20.952;2023-03-18T04:02:41;101120.61;;;2.18;59.71
78615;BME280;67937;52.488;20.952;2023-03-18T04:05:12;101118.81;;;2.15;59.86
78615;BME280;67937;52.488;20.952;2023-03-18T04:07:43;101117.83;;;2.13;60.16
78615;BME280;67937;52.488;20.952;2023-03-18T04:10:13;101123.37;;;2.08;60.40
78615;BME280;67937;52.488;20.952;2023-03-18T04:12:43;101120.42;;;2.08;60.18
78615;BME280;67937;52.488;20.952;2023-03-18T04:15:14;101126.16;;;2.08;60.28
78615;BME280;67937;52.488;20.952;2023-03-18T04:17:42;101128.06;;;2.08;60.03
78615;BME280;67937;52.488;20.952;2023-03-18T04:20:11;101127.13;;;2.05;60.03
78615;BME280;67937;52.488;20.952;2023-03-18T04:22:40;101127.46;;;2.10;59.72
78615;BME280;67937;52.488;20.952;2023-03-18T04:25:08;101133.00;;;2.06;60.02
78615;BME280;67937;52.488;20.952;2023-03-18T04:27:38;101127.46;;;2.05;60.09
78615;BME280;67937;52.488;20.952;2023-03-18T04:30:08;101125.96;;;2.09;59.67
78615;BME280;67937;52.488;20.952;2023-03-18T04:32:36;101131.70;;;2.03;60.00
78615;BME280;67937;52.488;20.952;2023-03-18T04:35:05;101130.44;;;2.05;59.54
78615;BME280;67937;52.488;20.952;2023-03-18T04:37:33;101126.41;;;2.00;59.88
78615;BME280;67937;52.488;20.952;2023-03-18T04:40:02;101122.70;;;2.02;59.82
78615;BME280;67937;52.488;20.952;2023-03-18T04:42:32;101125.61;;;1.99;60.04
78615;BME280;67937;52.488;20.952;2023-03-18T04:45:00;101125.51;;;1.96;60.10
78615;BME280;67937;52.488;20.952;2023-03-18T04:47:28;101124.85;;;2.00;59.84
78615;BME280;67937;52.488;20.952;2023-03-18T04:49:57;101125.16;;;1.96;60.01
78615;BME280;67937;52.488;20.952;2023-03-18T04:52:25;101123.41;;;1.96;59.83
78615;BME280;67937;52.488;20.952;2023-03-18T04:54:53;101122.95;;;1.94;59.90
78615;BME280;67937;52.488;20.952;2023-03-18T04:57:22;101128.58;;;1.92;59.95
78615;BME280;67937;52.488;20.952;2023-03-18T04:59:50;101129.94;;;1.93;59.81
78615;BME280;67937;52.488;20.952;2023-03-18T05:02:18;101128.02;;;1.94;59.98
78615;BME280;67937;52.488;20.952;2023-03-18T05:04:46;101128.88;;;1.94;60.00
78615;BME280;67937;52.488;20.952;2023-03-18T05:07:15;101130.51;;;1.97;59.84
78615;BME280;67937;52.488;20.952;2023-03-18T05:09:43;101130.02;;;2.01;59.84
78615;BME280;67937;52.488;20.952;2023-03-18T05:12:13;101128.11;;;2.01;59.90
78615;BME280;67937;52.488;20.952;2023-03-18T05:14:42;101128.91;;;2.04;59.79
78615;BME280;67937;52.488;20.952;2023-03-18T05:17:11;101133.80;;;2.09;59.39
78615;BME280;67937;52.488;20.952;2023-03-18T05:19:44;101134.03;;;2.12;59.28
78615;BME280;67937;52.488;20.952;2023-03-18T05:22:14;101134.13;;;2.14;58.89
78615;BME280;67937;52.488;20.952;2023-03-18T05:24:44;101134.39;;;2.18;59.00
78615;BME280;67937;52.488;20.952;2023-03-18T05:27:17;101133.80;;;2.19;58.79
78615;BME280;67937;52.488;20.952;2023-03-18T05:29:45;101134.16;;;2.24;58.90
78615;BME280;67937;52.488;20.952;2023-03-18T05:32:14;101131.52;;;2.31;58.48
78615;BME280;67937;52.488;20.952;2023-03-18T05:34:43;101130.14;;;2.35;58.57
78615;BME280;67937;52.488;20.952;2023-03-18T05:37:13;101132.93;;;2.41;58.42
78615;BME280;67937;52.488;20.952;2023-03-18T05:39:41;101126.04;;;2.43;58.38
78615;BME280;67937;52.488;20.952;2023-03-18T05:42:09;101125.23;;;2.51;57.83
78615;BME280;67937;52.488;20.952;2023-03-18T05:44:38;101127.16;;;2.61;57.52
78615;BME280;67937;52.488;20.952;2023-03-18T05:47:06;101126.37;;;2.70;57.30
78615;BME280;67937;52.488;20.952;2023-03-18T05:49:34;101123.27;;;2.78;57.44
78615;BME280;67937;52.488;20.952;2023-03-18T05:52:03;101117.38;;;2.97;56.02
78615;BME280;67937;52.488;20.952;2023-03-18T05:54:31;101121.17;;;3.03;56.27
78615;BME280;67937;52.488;20.952;2023-03-18T05:56:59;101116.98;;;3.13;56.23
78615;BME280;67937;52.488;20.952;2023-03-18T05:59:27;101117.66;;;3.23;56.03
78615;BME280;67937;52.488;20.952;2023-03-18T06:01:55;101123.40;;;3.46;54.53
78615;BME280;67937;52.488;20.952;2023-03-18T06:04:23;101121.40;;;3.53;54.54
78615;BME280;67937;52.488;20.952;2023-03-18T06:06:52;101120.59;;;3.65;54.14
78615;BME280;67937;52.488;20.952;2023-03-18T06:09:20;101118.30;;;3.75;54.27
78615;BME280;67937;52.488;20.952;2023-03-18T06:11:49;101117.79;;;3.88;54.72
78615;BME280;67937;52.488;20.952;2023-03-18T06:14:17;101112.91;;;4.01;54.34
78615;BME280;67937;52.488;20.952;2023-03-18T06:16:46;101109.38;;;4.10;54.00
78615;BME280;67937;52.488;20.952;2023-03-18T06:19:14;101110.80;;;4.18;54.20
78615;BME280;67937;52.488;20.952;2023-03-18T06:21:42;101108.85;;;4.31;54.31
78615;BME280;67937;52.488;20.952;2023-03-18T06:24:11;101107.30;;;4.47;54.13
78615;BME280;67937;52.488;20.952;2023-03-18T06:26:40;101101.08;;;4.58;53.07
78615;BME280;67937;52.488;20.952;2023-03-18T06:29:09;101108.60;;;4.66;53.29
78615;BME280;67937;52.488;20.952;2023-03-18T06:31:37;101101.59;;;4.79;52.93
78615;BME280;67937;52.488;20.952;2023-03-18T06:34:05;101106.73;;;4.85;52.87
78615;BME280;67937;52.488;20.952;2023-03-18T06:36:33;101102.96;;;4.95;53.13
78615;BME280;67937;52.488;20.952;2023-03-18T06:39:02;101096.35;;;5.14;52.15
78615;BME280;67937;52.488;20.952;2023-03-18T06:41:30;101098.16;;;5.16;52.41
78615;BME280;67937;52.488;20.952;2023-03-18T06:43:59;101095.28;;;5.30;52.10
78615;BME280;67937;52.488;20.952;2023-03-18T06:46:27;101098.05;;;5.42;52.06
78615;BME280;67937;52.488;20.952;2023-03-18T06:48:56;101093.87;;;5.49;52.10
78615;BME280;67937;52.488;20.952;2023-03-18T06:51:24;101098.96;;;5.64;51.69
78615;BME280;67937;52.488;20.952;2023-03-18T06:53:52;101097.95;;;5.74;50.61
78615;BME280;67937;52.488;20.952;2023-03-18T06:56:20;101094.92;;;5.78;50.35
78615;BME280;67937;52.488;20.952;2023-03-18T06:58:49;101095.55;;;5.89;50.86
78615;BME280;67937;52.488;20.952;2023-03-18T07:01:17;101098.33;;;5.99;50.88
78615;BME280;67937;52.488;20.952;2023-03-18T07:03:46;101096.77;;;6.17;50.30
78615;BME280;67937;52.488;20.952;2023-03-18T07:06:15;101100.17;;;6.29;48.78
78615;BME280;67937;52.488;20.952;2023-03-18T07:08:44;101103.84;;;6.36;47.72
78615;BME280;67937;52.488;20.952;2023-03-18T07:11:12;101102.84;;;6.39;48.48
78615;BME280;67937;52.488;20.952;2023-03-18T07:13:40;101102.46;;;6.53;47.27
78615;BME280;67937;52.488;20.952;2023-03-18T07:16:09;101100.56;;;6.60;47.71
78615;BME280;67937;52.488;20.952;2023-03-18T07:18:37;101102.20;;;6.72;47.02
78615;BME280;67937;52.488;20.952;2023-03-18T07:21:06;101104.63;;;6.87;46.57
78615;BME280;67937;52.488;20.952;2023-03-18T07:23:35;101111.11;;;6.97;46.23
78615;BME280;67937;52.488;20.952;2023-03-18T07:26:04;101108.70;;;7.02;46.25
78615;BME280;67937;52.488;20.952;2023-03-18T07:28:32;101104.77;;;7.17;46.04
78615;BME280;67937;52.488;20.952;2023-03-18T07:31:01;101105.70;;;7.25;45.84
78615;BME280;67937;52.488;20.952;2023-03-18T07:33:29;101105.11;;;7.36;44.84
78615;BME280;67937;52.488;20.952;2023-03-18T07:35:57;101108.32;;;7.42;45.48
78615;BME280;67937;52.488;20.952;2023-03-18T07:38:26;101109.29;;;7.53;44.90
78615;BME280;67937;52.488;20.952;2023-03-18T07:40:54;101102.09;;;7.56;44.56
78615;BME280;67937;52.488;20.952;2023-03-18T07:43:22;101104.58;;;7.62;45.34
78615;BME280;67937;52.488;20.952;2023-03-18T07:45:50;101098.78;;;7.88;45.16
78615;BME280;67937;52.488;20.952;2023-03-18T07:48:19;101098.77;;;8.03;45.02
78615;BME280;67937;52.488;20.952;2023-03-18T07:50:47;101095.20;;;8.14;43.20
78615;BME280;67937;52.488;20.952;2023-03-18T07:53:15;101100.51;;;8.10;43.75
78615;BME280;67937;52.488;20.952;2023-03-18T07:55:43;101098.60;;;8.22;42.88
78615;BME280;67937;52.488;20.952;2023-03-18T07:58:11;101098.73;;;8.26;42.05
78615;BME280;67937;52.488;20.952;2023-03-18T08:00:40;101095.38;;;8.13;42.40
78615;BME280;67937;52.488;20.952;2023-03-18T08:03:11;101097.48;;;8.26;43.04
78615;BME280;67937;52.488;20.952;2023-03-18T08:05:39;101089.84;;;8.45;41.99
78615;BME280;67937;52.488;20.952;2023-03-18T08:08:07;101092.70;;;8.42;42.59
78615;BME280;67937;52.488;20.952;2023-03-18T08:10:36;101093.95;;;8.53;41.81
78615;BME280;67937;52.488;20.952;2023-03-18T08:13:04;101090.23;;;8.54;42.25
78615;BME280;67937;52.488;20.952;2023-03-18T08:15:33;101082.70;;;8.71;42.42
78615;BME280;67937;52.488;20.952;2023-03-18T08:18:01;101083.02;;;8.77;41.77
78615;BME280;67937;52.488;20.952;2023-03-18T08:20:29;101078.38;;;8.87;42.73
78615;BME280;67937;52.488;20.952;2023-03-18T08:22:57;101070.10;;;8.98;42.34
78615;BME280;67937;52.488;20.952;2023-03-18T08:25:25;101065.05;;;9.18;42.21
78615;BME280;67937;52.488;20.952;2023-03-18T08:27:53;101065.29;;;9.36;41.43
78615;BME280;67937;52.488;20.952;2023-03-18T08:30:22;101062.58;;;9.45;41.09
78615;BME280;67937;52.488;20.952;2023-03-18T08:32:54;101063.48;;;9.45;40.75
78615;BME280;67937;52.488;20.952;2023-03-18T08:35:23;101062.21;;;9.48;40.85
78615;BME280;67937;52.488;20.952;2023-03-18T08:37:52;101060.08;;;9.54;42.09
78615;BME280;67937;52.488;20.952;2023-03-18T08:40:20;101059.35;;;9.71;41.61
78615;BME280;67937;52.488;20.952;2023-03-18T08:42:48;101054.05;;;9.85;41.43
78615;BME280;67937;52.488;20.952;2023-03-18T08:45:16;101047.83;;;9.93;41.68
78615;BME280;67937;52.488;20.952;2023-03-18T08:47:45;101051.86;;;10.12;41.34
78615;BME280;67937;52.488;20.952;2023-03-18T08:50:13;101045.83;;;10.16;40.29
78615;BME280;67937;52.488;20.952;2023-03-18T08:52:42;101053.13;;;10.25;40.33
78615;BME280;67937;52.488;20.952;2023-03-18T08:55:10;101049.77;;;10.23;41.06
78615;BME280;67937;52.488;20.952;2023-03-18T08:57:38;101045.78;;;10.38;40.98
78615;BME280;67937;52.488;20.952;2023-03-18T09:03:55;101045.05;;;10.33;39.90
78615;BME280;67937;52.488;20.952;2023-03-18T09:06:24;101044.14;;;10.36;40.24
78615;BME280;67937;52.488;20.952;2023-03-18T09:08:53;101038.98;;;10.34;41.24
78615;BME280;67937;52.488;20.952;2023-03-18T09:11:21;101037.30;;;10.44;41.15
78615;BME280;67937;52.488;20.952;2023-03-18T09:13:50;101035.80;;;10.50;38.18
78615;BME280;67937;52.488;20.952;2023-03-18T09:16:18;101035.20;;;10.32;38.29
78615;BME280;67937;52.488;20.952;2023-03-18T09:18:46;101031.67;;;10.24;37.55
78615;BME280;67937;52.488;20.952;2023-03-18T09:21:14;101030.23;;;10.14;37.86
78615;BME280;67937;52.488;20.952;2023-03-18T09:23:42;101034.20;;;10.13;37.45
78615;BME280;67937;52.488;20.952;2023-03-18T09:26:11;101032.59;;;9.97;37.39
78615;BME280;67937;52.488;20.952;2023-03-18T09:28:40;101033.34;;;9.89;37.49
78615;BME280;67937;52.488;20.952;2023-03-18T09:31:08;101035.06;;;9.89;37.48
78615;BME280;67937;52.488;20.952;2023-03-18T09:33:36;101028.02;;;9.94;38.23
78615;BME280;67937;52.488;20.952;2023-03-18T09:36:08;101028.02;;;9.97;37.09
78615;BME280;67937;52.488;20.952;2023-03-18T09:38:36;101028.23;;;9.97;37.13
78615;BME280;67937;52.488;20.952;2023-03-18T09:47:12;101018.48;;;10.00;36.72
78615;BME280;67937;52.488;20.952;2023-03-18T09:50:12;101010.73;;;10.13;36.53
78615;BME280;67937;52.488;20.952;2023-03-18T09:55:35;101012.40;;;10.12;37.06
78615;BME280;67937;52.488;20.952;2023-03-18T09:58:15;101013.17;;;10.16;37.58
78615;BME280;67937;52.488;20.952;2023-03-18T10:00:45;101012.27;;;10.30;37.12
78615;BME280;67937;52.488;20.952;2023-03-18T10:04:08;101009.71;;;10.28;38.21
78615;BME280;67937;52.488;20.952;2023-03-18T10:06:16;101005.79;;;10.42;36.92
78615;BME280;67937;52.488;20.952;2023-03-18T10:11:47;101004.71;;;10.53;37.62
78615;BME280;67937;52.488;20.952;2023-03-18T10:19:25;100995.03;;;10.75;37.38
78615;BME280;67937;52.488;20.952;2023-03-18T10:22:12;100995.14;;;10.86;37.16
78615;BME280;67937;52.488;20.952;2023-03-18T10:28:07;100989.79;;;11.02;36.30
78615;BME280;67937;52.488;20.952;2023-03-18T10:33:37;100990.75;;;11.10;36.00
78615;BME280;67937;52.488;20.952;2023-03-18T10:38:46;100986.59;;;11.14;37.06
78615;BME280;67937;52.488;20.952;2023-03-18T10:43:44;100981.13;;;11.34;36.81
78615;BME280;67937;52.488;20.952;2023-03-18T10:46:15;100977.35;;;11.56;36.34
78615;BME280;67937;52.488;20.952;2023-03-18T10:48:49;100973.88;;;11.60;35.56
78615;BME280;67937;52.488;20.952;2023-03-18T10:51:33;100969.83;;;11.55;35.73
78615;BME280;67937;52.488;20.952;2023-03-18T10:54:14;100969.39;;;11.58;36.12
78615;BME280;67937;52.488;20.952;2023-03-18T10:56:46;100968.31;;;11.64;35.98
78615;BME280;67937;52.488;20.952;2023-03-18T10:59:17;100970.33;;;11.73;34.37
78615;BME280;67937;52.488;20.952;2023-03-18T11:01:52;100969.27;;;11.75;35.37
78615;BME280;67937;52.488;20.952;2023-03-18T11:04:22;100963.21;;;11.97;34.94
78615;BME280;67937;52.488;20.952;2023-03-18T11:09:32;100958.01;;;12.27;34.20
78615;BME280;67937;52.488;20.952;2023-03-18T11:12:05;100950.92;;;12.28;33.48
78615;BME280;67937;52.488;20.952;2023-03-18T11:14:35;100950.23;;;12.30;33.14
78615;BME280;67937;52.488;20.952;2023-03-18T11:17:16;100949.61;;;12.31;33.37
78615;BME280;67937;52.488;20.952;2023-03-18T11:19:48;100949.03;;;12.34;34.05
78615;BME280;67937;52.488;20.952;2023-03-18T11:22:17;100941.67;;;12.48;32.54
78615;BME280;67937;52.488;20.952;2023-03-18T11:25:03;100943.09;;;12.51;32.64
78615;BME280;67937;52.488;20.952;2023-03-18T11:27:38;100940.04;;;12.56;32.70
78615;BME280;67937;52.488;20.952;2023-03-18T11:33:13;100938.41;;;12.74;32.89
78615;BME280;67937;52.488;20.952;2023-03-18T11:38:17;100927.11;;;13.08;31.82
78615;BME280;67937;52.488;20.952;2023-03-18T11:40:46;100922.49;;;12.94;31.91
78615;BME280;67937;52.488;20.952;2023-03-18T11:43:21;100925.91;;;12.96;32.73
78615;BME280;67937;52.488;20.952;2023-03-18T11:45:52;100922.61;;;12.95;32.65
78615;BME280;67937;52.488;20.952;2023-03-18T11:48:43;100919.41;;;13.02;32.96
78615;BME280;67937;52.488;20.952;2023-03-18T11:51:35;100920.44;;;13.07;32.82
78615;BME280;67937;52.488;20.952;2023-03-18T12:00:17;100916.77;;;13.41;31.54
78615;BME280;67937;52.488;20.952;2023-03-18T12:05:43;100906.77;;;13.38;32.68
78615;BME280;67937;52.488;20.952;2023-03-18T12:11:30;100905.10;;;13.57;31.46
78615;BME280;67937;52.488;20.952;2023-03-18T12:23:18;100900.64;;;13.60;33.04
78615;BME280;67937;52.488;20.952;2023-03-18T12:28:27;100891.80;;;13.72;33.52
78615;BME280;67937;52.488;20.952;2023-03-18T12:34:00;100881.50;;;13.76;32.69
78615;BME280;67937;52.488;20.952;2023-03-18T12:39:54;100881.24;;;13.84;33.69
78615;BME280;67937;52.488;20.952;2023-03-18T12:45:34;100874.21;;;14.04;33.40
78615;BME280;67937;52.488;20.952;2023-03-18T12:48:12;100876.04;;;14.07;34.25
78615;BME280;67937;52.488;20.952;2023-03-18T12:50:58;100879.02;;;14.10;33.85
78615;BME280;67937;52.488;20.952;2023-03-18T12:53:39;100875.20;;;13.94;32.56
78615;BME280;67937;52.488;20.952;2023-03-18T12:56:16;100871.48;;;13.63;33.31
78615;BME280;67937;52.488;20.952;2023-03-18T12:58:50;100872.36;;;13.59;34.55
78615;BME280;67937;52.488;20.952;2023-03-18T13:01:46;100873.39;;;13.65;34.26
78615;BME280;67937;52.488;20.952;2023-03-18T13:04:21;100871.80;;;13.59;35.05
78615;BME280;67937;52.488;20.952;2023-03-18T13:07:06;100874.77;;;13.66;34.93
78615;BME280;67937;52.488;20.952;2023-03-18T13:09:48;100871.61;;;13.70;34.79
78615;BME280;67937;52.488;20.952;2023-03-18T13:12:34;100866.89;;;13.71;34.16
78615;BME280;67937;52.488;20.952;2023-03-18T13:17:59;100867.85;;;13.32;32.90
78615;BME280;67937;52.488;20.952;2023-03-18T13:20:33;100864.75;;;13.33;33.94
78615;BME280;67937;52.488;20.952;2023-03-18T13:31:52;100860.54;;;13.37;33.35
78615;BME280;67937;52.488;20.952;2023-03-18T13:34:37;100853.67;;;13.32;32.97
78615;BME280;67937;52.488;20.952;2023-03-18T13:42:32;100834.09;;;13.16;33.21
78615;BME280;67937;52.488;20.952;2023-03-18T13:45:32;100833.90;;;13.14;34.15
78615;BME280;67937;52.488;20.952;2023-03-18T13:48:23;100832.42;;;13.19;33.52
78615;BME280;67937;52.488;20.952;2023-03-18T13:50:56;100828.80;;;13.10;33.80
78615;BME280;67937;52.488;20.952;2023-03-18T13:53:33;100832.02;;;13.27;32.70
78615;BME280;67937;52.488;20.952;2023-03-18T13:56:25;100830.38;;;13.16;32.68
78615;BME280;67937;52.488;20.952;2023-03-18T13:59:00;100826.10;;;13.01;33.34
78615;BME280;67937;52.488;20.952;2023-03-18T14:02:40;100825.20;;;12.86;33.93
78615;BME280;67937;52.488;20.952;2023-03-18T14:05:33;100823.13;;;12.77;34.58
78615;BME280;67937;52.488;20.952;2023-03-18T14:08:04;100820.48;;;12.70;34.65
78615;BME280;67937;52.488;20.952;2023-03-18T14:16:26;100813.41;;;12.56;33.85
78615;BME280;67937;52.488;20.952;2023-03-18T14:19:24;100807.73;;;12.46;34.58
78615;BME280;67937;52.488;20.952;2023-03-18T14:24:40;100804.17;;;12.35;35.43
78615;BME280;67937;52.488;20.952;2023-03-18T14:27:17;100800.25;;;12.40;35.67
78615;BME280;67937;52.488;20.952;2023-03-18T14:29:46;100797.48;;;12.37;35.64
78615;BME280;67937;52.488;20.952;2023-03-18T14:40:26;100793.55;;;12.15;35.99
78615;BME280;67937;52.488;20.952;2023-03-18T14:43:00;100791.91;;;12.11;35.63
78615;BME280;67937;52.488;20.952;2023-03-18T14:45:38;100793.33;;;12.02;35.39
78615;BME280;67937;52.488;20.952;2023-03-18T14:48:16;100796.94;;;12.02;35.56
78615;BME280;67937;52.488;20.952;2023-03-18T14:50:50;100794.21;;;11.91;36.09
78615;BME280;67937;52.488;20.952;2023-03-18T14:53:25;100790.29;;;11.92;36.60
78615;BME280;67937;52.488;20.952;2023-03-18T14:55:56;100792.84;;;11.88;36.20
78615;BME280;67937;52.488;20.952;2023-03-18T14:58:25;100789.20;;;11.85;35.52
78615;BME280;67937;52.488;20.952;2023-03-18T15:00:59;100788.59;;;11.77;35.86
78615;BME280;67937;52.488;20.952;2023-03-18T15:03:31;100787.53;;;11.66;36.66